sensor_id;sensor_type;location;lat;lon;timestamp;temperature;humidity
28244;DHT22;15510;52.512;13.300;2022-09-17T00:00:34;11.90;99.90
28244;DHT22;15510;52.512;13.300;2022-09-17T00:03:01;11.90;99.90
28244;DHT22;15510;52.512;13.300;2022-09-17T00:05:27;11.90;99.90
28244;DHT22;15510;52.512;13.300;2022-09-17T00:07:53;11.90;99.90
28244;DHT22;15510;52.512;13.300;2022-09-17T00:10:19;11.90;99.90
28244;DHT22;15510;52.512;13.300;2022-09-17T00:12:46;11.90;99.90
28244;DHT22;15510;52.512;13.300;2022-09-17T00:15:11;12.00;99.90
28244;DHT22;15510;52.512;13.300;2022-09-17T00:17:37;12.00;99.90
28244;DHT22;15510;52.512;13.300;2022-09-17T00:20:04;12.00;99.90
28244;DHT22;15510;52.512;13.300;2022-09-17T00:22:31;12.00;99.90
28244;DHT22;15510;52.512;13.300;2022-09-17T00:24:57;12.10;99.90
28244;DHT22;15510;52.512;13.300;2022-09-17T00:27:23;12.10;99.90
28244;DHT22;15510;52.512;13.300;2022-09-17T00:29:48;12.10;99.90
28244;DHT22;15510;52.512;13.300;2022-09-17T00:32:14;12.10;99.90
28244;DHT22;15510;52.512;13.300;2022-09-17T00:34:41;12.10;99.90
28244;DHT22;15510;52.512;13.300;2022-09-17T00:37:07;12.20;99.90
28244;DHT22;15510;52.512;13.300;2022-09-17T00:39:32;12.20;99.90
28244;DHT22;15510;52.512;13.300;2022-09-17T00:41:58;12.20;99.90
28244;DHT22;15510;52.512;13.300;2022-09-17T00:44:45;12.30;99.90
28244;DHT22;15510;52.512;13.300;2022-09-17T00:47:32;12.30;99.90
28244;DHT22;15510;52.512;13.300;2022-09-17T00:50:05;12.40;99.90
28244;DHT22;15510;52.512;13.300;2022-09-17T00:52:39;12.30;99.90
28244;DHT22;15510;52.512;13.300;2022-09-17T00:57:58;12.40;99.90
28244;DHT22;15510;52.512;13.300;2022-09-17T01:00:26;12.40;99.90
28244;DHT22;15510;52.512;13.300;2022-09-17T01:02:53;12.30;99.90
28244;DHT22;15510;52.512;13.300;2022-09-17T01:05:39;12.30;99.90
28244;DHT22;15510;52.512;13.300;2022-09-17T01:08:37;12.40;99.90
28244;DHT22;15510;52.512;13.300;2022-09-17T01:11:29;12.30;99.90
28244;DHT22;15510;52.512;13.300;2022-09-17T01:17:30;12.30;99.90
28244;DHT22;15510;52.512;13.300;2022-09-17T01:25:18;12.40;99.90
28244;DHT22;15510;52.512;13.300;2022-09-17T01:33:25;12.40;99.90
28244;DHT22;15510;52.512;13.300;2022-09-17T01:36:05;12.40;99.90
28244;DHT22;15510;52.512;13.300;2022-09-17T01:38:51;12.40;99.90
28244;DHT22;15510;52.512;13.300;2022-09-17T01:46:43;12.30;99.90
28244;DHT22;15510;52.512;13.300;2022-09-17T01:49:11;12.30;99.90
28244;DHT22;15510;52.512;13.300;2022-09-17T01:51:42;12.30;99.90
28244;DHT22;15510;52.512;13.300;2022-09-17T01:54:24;12.30;99.90
28244;DHT22;15510;52.512;13.300;2022-09-17T01:56:55;12.30;99.90
28244;DHT22;15510;52.512;13.300;2022-09-17T01:59:28;12.30;99.90
28244;DHT22;15510;52.512;13.300;2022-09-17T02:02:02;12.40;99.90
28244;DHT22;15510;52.512;13.300;2022-09-17T02:04:51;12.30;99.90
28244;DHT22;15510;52.512;13.300;2022-09-17T02:07:21;12.40;99.90
28244;DHT22;15510;52.512;13.300;2022-09-17T02:10:15;12.40;99.90
28244;DHT22;15510;52.512;13.300;2022-09-17T02:12:45;12.40;99.90
28244;DHT22;15510;52.512;13.300;2022-09-17T02:15:18;12.40;99.90
28244;DHT22;15510;52.512;13.300;2022-09-17T02:17:51;12.40;99.90
28244;DHT22;15510;52.512;13.300;2022-09-17T02:20:29;12.40;99.90
28244;DHT22;15510;52.512;13.300;2022-09-17T02:22:59;12.40;99.90
28244;DHT22;15510;52.512;13.300;2022-09-17T02:28:04;12.40;99.90
28244;DHT22;15510;52.512;13.300;2022-09-17T02:30:33;12.40;99.90
28244;DHT22;15510;52.512;13.300;2022-09-17T02:33:01;12.40;99.90
28244;DHT22;15510;52.512;13.300;2022-09-17T02:35:30;12.40;99.90
28244;DHT22;15510;52.512;13.300;2022-09-17T02:37:56;12.40;99.90
28244;DHT22;15510;52.512;13.300;2022-09-17T02:40:23;12.40;99.90
28244;DHT22;15510;52.512;13.300;2022-09-17T02:43:08;12.40;99.90
28244;DHT22;15510;52.512;13.300;2022-09-17T02:48:35;12.50;99.90
28244;DHT22;15510;52.512;13.300;2022-09-17T02:55:06;12.40;99.90
28244;DHT22;15510;52.512;13.300;2022-09-17T02:59:58;12.50;99.90
28244;DHT22;15510;52.512;13.300;2022-09-17T03:02:31;12.50;99.90
28244;DHT22;15510;52.512;13.300;2022-09-17T03:05:00;12.50;99.90
28244;DHT22;15510;52.512;13.300;2022-09-17T03:07:27;12.60;99.90
28244;DHT22;15510;52.512;13.300;2022-09-17T03:09:53;12.60;99.90
28244;DHT22;15510;52.512;13.300;2022-09-17T03:12:19;12.60;99.90
28244;DHT22;15510;52.512;13.300;2022-09-17T03:14:45;12.60;99.90
28244;DHT22;15510;52.512;13.300;2022-09-17T03:17:11;12.60;99.90
28244;DHT22;15510;52.512;13.300;2022-09-17T03:19:37;12.60;99.90
28244;DHT22;15510;52.512;13.300;2022-09-17T03:22:02;12.60;99.90
28244;DHT22;15510;52.512;13.300;2022-09-17T03:24:28;12.60;99.90
28244;DHT22;15510;52.512;13.300;2022-09-17T03:26:54;12.60;99.90
28244;DHT22;15510;52.512;13.300;2022-09-17T03:29:19;12.70;99.90
28244;DHT22;15510;52.512;13.300;2022-09-17T03:31:45;12.70;99.90
28244;DHT22;15510;52.512;13.300;2022-09-17T03:34:11;12.70;99.90
28244;DHT22;15510;52.512;13.300;2022-09-17T03:36:36;12.70;99.90
28244;DHT22;15510;52.512;13.300;2022-09-17T03:39:02;12.70;99.90
28244;DHT22;15510;52.512;13.300;2022-09-17T03:41:28;12.80;99.90
28244;DHT22;15510;52.512;13.300;2022-09-17T03:43:53;12.70;99.90
28244;DHT22;15510;52.512;13.300;2022-09-17T03:46:19;12.80;99.90
28244;DHT22;15510;52.512;13.300;2022-09-17T03:48:45;12.80;99.90
28244;DHT22;15510;52.512;13.300;2022-09-17T03:51:11;12.80;99.90
28244;DHT22;15510;52.512;13.300;2022-09-17T03:53:37;12.90;99.90
28244;DHT22;15510;52.512;13.300;2022-09-17T03:56:04;12.80;99.90
28244;DHT22;15510;52.512;13.300;2022-09-17T03:58:30;12.80;99.90
28244;DHT22;15510;52.512;13.300;2022-09-17T04:00:56;12.80;99.90
28244;DHT22;15510;52.512;13.300;2022-09-17T04:03:26;12.80;99.90
28244;DHT22;15510;52.512;13.300;2022-09-17T04:05:52;12.80;99.90
28244;DHT22;15510;52.512;13.300;2022-09-17T04:08:18;12.90;99.90
28244;DHT22;15510;52.512;13.300;2022-09-17T04:10:44;12.90;99.90
28244;DHT22;15510;52.512;13.300;2022-09-17T04:13:10;12.90;99.90
28244;DHT22;15510;52.512;13.300;2022-09-17T04:15:36;12.80;99.90
28244;DHT22;15510;52.512;13.300;2022-09-17T04:18:02;12.90;99.90
28244;DHT22;15510;52.512;13.300;2022-09-17T04:20:28;12.90;99.90
28244;DHT22;15510;52.512;13.300;2022-09-17T04:22:53;13.00;99.90
28244;DHT22;15510;52.512;13.300;2022-09-17T04:25:19;13.00;99.90
28244;DHT22;15510;52.512;13.300;2022-09-17T04:27:45;13.00;99.90
28244;DHT22;15510;52.512;13.300;2022-09-17T04:30:13;12.90;99.90
28244;DHT22;15510;52.512;13.300;2022-09-17T04:32:39;12.90;99.90
28244;DHT22;15510;52.512;13.300;2022-09-17T04:35:04;12.80;99.90
28244;DHT22;15510;52.512;13.300;2022-09-17T04:37:30;12.80;99.90
28244;DHT22;15510;52.512;13.300;2022-09-17T04:39:56;12.80;99.90
28244;DHT22;15510;52.512;13.300;2022-09-17T04:42:21;12.90;99.90
28244;DHT22;15510;52.512;13.300;2022-09-17T04:44:47;12.90;99.90
28244;DHT22;15510;52.512;13.300;2022-09-17T04:47:13;12.80;99.90
28244;DHT22;15510;52.512;13.300;2022-09-17T04:49:38;12.80;99.90
28244;DHT22;15510;52.512;13.300;2022-09-17T04:52:04;12.80;99.90
28244;DHT22;15510;52.512;13.300;2022-09-17T04:54:30;12.90;99.90
28244;DHT22;15510;52.512;13.300;2022-09-17T04:56:56;12.90;99.90
28244;DHT22;15510;52.512;13.300;2022-09-17T04:59:22;12.90;99.90
28244;DHT22;15510;52.512;13.300;2022-09-17T05:01:48;12.80;99.90
28244;DHT22;15510;52.512;13.300;2022-09-17T05:04:14;12.90;99.90
28244;DHT22;15510;52.512;13.300;2022-09-17T05:06:39;12.90;99.90
28244;DHT22;15510;52.512;13.300;2022-09-17T05:09:05;13.00;99.90
28244;DHT22;15510;52.512;13.300;2022-09-17T05:11:31;13.00;99.90
28244;DHT22;15510;52.512;13.300;2022-09-17T05:13:56;13.00;99.90
28244;DHT22;15510;52.512;13.300;2022-09-17T05:16:22;13.00;99.90
28244;DHT22;15510;52.512;13.300;2022-09-17T05:18:48;13.00;99.90
28244;DHT22;15510;52.512;13.300;2022-09-17T05:21:16;13.00;99.90
28244;DHT22;15510;52.512;13.300;2022-09-17T05:23:42;13.00;99.90
28244;DHT22;15510;52.512;13.300;2022-09-17T05:26:07;13.00;99.90
28244;DHT22;15510;52.512;13.300;2022-09-17T05:28:33;13.00;99.90
28244;DHT22;15510;52.512;13.300;2022-09-17T05:30:59;13.10;99.90
28244;DHT22;15510;52.512;13.300;2022-09-17T05:33:25;13.10;99.90
28244;DHT22;15510;52.512;13.300;2022-09-17T05:35:50;13.10;99.90
28244;DHT22;15510;52.512;13.300;2022-09-17T05:38:16;13.10;99.90
28244;DHT22;15510;52.512;13.300;2022-09-17T05:40:44;13.20;99.90
28244;DHT22;15510;52.512;13.300;2022-09-17T05:43:10;13.20;99.90
28244;DHT22;15510;52.512;13.300;2022-09-17T05:45:36;13.30;99.90
28244;DHT22;15510;52.512;13.300;2022-09-17T05:48:04;13.40;99.90
28244;DHT22;15510;52.512;13.300;2022-09-17T05:50:31;13.50;99.90
28244;DHT22;15510;52.512;13.300;2022-09-17T05:53:11;13.50;99.90
28244;DHT22;15510;52.512;13.300;2022-09-17T05:55:37;13.40;99.90
28244;DHT22;15510;52.512;13.300;2022-09-17T05:58:14;13.40;99.90
28244;DHT22;15510;52.512;13.300;2022-09-17T06:00:40;13.20;99.90
28244;DHT22;15510;52.512;13.300;2022-09-17T06:03:12;13.20;99.90
28244;DHT22;15510;52.512;13.300;2022-09-17T06:05:38;13.10;99.90
28244;DHT22;15510;52.512;13.300;2022-09-17T06:08:03;13.10;99.90
28244;DHT22;15510;52.512;13.300;2022-09-17T06:10:30;13.10;99.90
28244;DHT22;15510;52.512;13.300;2022-09-17T06:12:57;13.10;99.90
28244;DHT22;15510;52.512;13.300;2022-09-17T06:15:23;13.10;99.90
28244;DHT22;15510;52.512;13.300;2022-09-17T06:17:49;13.10;99.90
28244;DHT22;15510;52.512;13.300;2022-09-17T06:20:14;13.10;99.90
28244;DHT22;15510;52.512;13.300;2022-09-17T06:22:41;13.10;99.90
28244;DHT22;15510;52.512;13.300;2022-09-17T06:25:07;13.20;99.90
28244;DHT22;15510;52.512;13.300;2022-09-17T06:27:33;13.20;99.90
28244;DHT22;15510;52.512;13.300;2022-09-17T06:29:59;13.20;99.90
28244;DHT22;15510;52.512;13.300;2022-09-17T06:32:26;13.40;99.90
28244;DHT22;15510;52.512;13.300;2022-09-17T06:34:51;13.50;99.90
28244;DHT22;15510;52.512;13.300;2022-09-17T06:37:18;13.60;99.90
28244;DHT22;15510;52.512;13.300;2022-09-17T06:39:44;13.70;99.90
28244;DHT22;15510;52.512;13.300;2022-09-17T06:42:10;13.70;99.90
28244;DHT22;15510;52.512;13.300;2022-09-17T06:44:37;13.60;99.90
28244;DHT22;15510;52.512;13.300;2022-09-17T06:47:03;13.60;99.90
28244;DHT22;15510;52.512;13.300;2022-09-17T06:49:29;13.60;99.90
28244;DHT22;15510;52.512;13.300;2022-09-17T06:51:55;13.50;99.90
28244;DHT22;15510;52.512;13.300;2022-09-17T06:54:21;13.50;99.90
28244;DHT22;15510;52.512;13.300;2022-09-17T06:56:47;13.60;99.90
28244;DHT22;15510;52.512;13.300;2022-09-17T06:59:12;13.60;99.90
28244;DHT22;15510;52.512;13.300;2022-09-17T07:01:38;13.60;99.90
28244;DHT22;15510;52.512;13.300;2022-09-17T07:04:03;13.60;99.90
28244;DHT22;15510;52.512;13.300;2022-09-17T07:06:29;13.60;99.90
28244;DHT22;15510;52.512;13.300;2022-09-17T07:08:55;13.70;99.90
28244;DHT22;15510;52.512;13.300;2022-09-17T07:11:22;13.70;99.90
28244;DHT22;15510;52.512;13.300;2022-09-17T07:13:47;13.80;99.90
28244;DHT22;15510;52.512;13.300;2022-09-17T07:16:17;14.00;99.90
28244;DHT22;15510;52.512;13.300;2022-09-17T07:18:42;14.30;99.90
28244;DHT22;15510;52.512;13.300;2022-09-17T07:21:09;14.40;99.90
28244;DHT22;15510;52.512;13.300;2022-09-17T07:23:35;14.50;99.90
28244;DHT22;15510;52.512;13.300;2022-09-17T07:26:04;14.60;99.90
28244;DHT22;15510;52.512;13.300;2022-09-17T07:28:30;14.50;99.90
28244;DHT22;15510;52.512;13.300;2022-09-17T07:30:56;14.60;99.90
28244;DHT22;15510;52.512;13.300;2022-09-17T07:33:25;14.60;99.90
28244;DHT22;15510;52.512;13.300;2022-09-17T07:36:01;14.70;99.90
28244;DHT22;15510;52.512;13.300;2022-09-17T07:38:28;14.70;99.90
28244;DHT22;15510;52.512;13.300;2022-09-17T07:40:56;14.70;99.90
28244;DHT22;15510;52.512;13.300;2022-09-17T07:43:24;14.80;99.90
28244;DHT22;15510;52.512;13.300;2022-09-17T07:45:51;14.80;99.90
28244;DHT22;15510;52.512;13.300;2022-09-17T07:48:18;14.80;99.90
28244;DHT22;15510;52.512;13.300;2022-09-17T07:50:43;14.90;99.90
28244;DHT22;15510;52.512;13.300;2022-09-17T07:53:09;14.90;99.90
28244;DHT22;15510;52.512;13.300;2022-09-17T07:55:35;15.00;99.90
28244;DHT22;15510;52.512;13.300;2022-09-17T07:58:00;15.10;99.90
28244;DHT22;15510;52.512;13.300;2022-09-17T08:00:26;15.10;99.90
28244;DHT22;15510;52.512;13.300;2022-09-17T08:02:53;15.10;99.90
28244;DHT22;15510;52.512;13.300;2022-09-17T08:05:19;15.20;99.90
28244;DHT22;15510;52.512;13.300;2022-09-17T08:07:49;15.20;99.90
28244;DHT22;15510;52.512;13.300;2022-09-17T08:10:15;15.20;99.90
28244;DHT22;15510;52.512;13.300;2022-09-17T08:12:40;15.30;99.90
28244;DHT22;15510;52.512;13.300;2022-09-17T08:15:06;15.40;99.90
28244;DHT22;15510;52.512;13.300;2022-09-17T08:17:32;15.40;99.90
28244;DHT22;15510;52.512;13.300;2022-09-17T08:19:57;15.40;99.90
28244;DHT22;15510;52.512;13.300;2022-09-17T08:22:23;15.40;99.90
28244;DHT22;15510;52.512;13.300;2022-09-17T08:24:49;15.50;99.90
28244;DHT22;15510;52.512;13.300;2022-09-17T08:27:14;15.50;99.90
28244;DHT22;15510;52.512;13.300;2022-09-17T08:29:40;15.60;99.90
28244;DHT22;15510;52.512;13.300;2022-09-17T08:32:05;15.50;99.90
28244;DHT22;15510;52.512;13.300;2022-09-17T08:34:31;15.50;99.90
28244;DHT22;15510;52.512;13.300;2022-09-17T08:36:56;15.50;99.90
28244;DHT22;15510;52.512;13.300;2022-09-17T08:39:23;15.60;99.90
28244;DHT22;15510;52.512;13.300;2022-09-17T08:41:54;15.60;99.90
28244;DHT22;15510;52.512;13.300;2022-09-17T08:44:41;15.80;99.90
28244;DHT22;15510;52.512;13.300;2022-09-17T08:49:48;15.80;99.90
28244;DHT22;15510;52.512;13.300;2022-09-17T08:55:31;16.00;99.90
28244;DHT22;15510;52.512;13.300;2022-09-17T09:00:55;16.10;99.90
28244;DHT22;15510;52.512;13.300;2022-09-17T09:06:43;15.80;99.90
28244;DHT22;15510;52.512;13.300;2022-09-17T09:09:14;15.50;99.90
28244;DHT22;15510;52.512;13.300;2022-09-17T09:11:41;15.50;99.90
28244;DHT22;15510;52.512;13.300;2022-09-17T09:14:28;15.50;99.90
28244;DHT22;15510;52.512;13.300;2022-09-17T09:16:56;15.50;99.90
28244;DHT22;15510;52.512;13.300;2022-09-17T09:19:28;15.60;99.90
28244;DHT22;15510;52.512;13.300;2022-09-17T09:22:36;15.70;99.90
28244;DHT22;15510;52.512;13.300;2022-09-17T09:25:25;16.00;99.90
28244;DHT22;15510;52.512;13.300;2022-09-17T09:28:15;16.10;99.90
28244;DHT22;15510;52.512;13.300;2022-09-17T09:31:04;16.40;99.90
28244;DHT22;15510;52.512;13.300;2022-09-17T09:33:40;16.50;99.90
28244;DHT22;15510;52.512;13.300;2022-09-17T09:36:10;16.40;99.90
28244;DHT22;15510;52.512;13.300;2022-09-17T09:38:43;16.30;99.90
28244;DHT22;15510;52.512;13.300;2022-09-17T09:41:14;16.10;99.90
28244;DHT22;15510;52.512;13.300;2022-09-17T09:43:50;16.00;99.90
28244;DHT22;15510;52.512;13.300;2022-09-17T09:47:22;15.60;99.90
28244;DHT22;15510;52.512;13.300;2022-09-17T09:57:12;14.10;99.90
28244;DHT22;15510;52.512;13.300;2022-09-17T09:59:39;14.20;99.90
28244;DHT22;15510;52.512;13.300;2022-09-17T10:02:06;14.30;99.90
28244;DHT22;15510;52.512;13.300;2022-09-17T10:04:32;14.50;99.90
28244;DHT22;15510;52.512;13.300;2022-09-17T10:09:30;15.00;99.90
28244;DHT22;15510;52.512;13.300;2022-09-17T10:14:42;15.30;99.90
28244;DHT22;15510;52.512;13.300;2022-09-17T10:17:25;15.40;99.90
28244;DHT22;15510;52.512;13.300;2022-09-17T10:22:39;15.80;99.90
28244;DHT22;15510;52.512;13.300;2022-09-17T10:25:17;16.00;99.90
28244;DHT22;15510;52.512;13.300;2022-09-17T10:27:46;16.10;99.90
28244;DHT22;15510;52.512;13.300;2022-09-17T10:30:16;16.20;99.90
28244;DHT22;15510;52.512;13.300;2022-09-17T10:32:42;16.10;99.90
28244;DHT22;15510;52.512;13.300;2022-09-17T10:37:46;15.40;99.90
28244;DHT22;15510;52.512;13.300;2022-09-17T10:42:47;15.20;99.90
28244;DHT22;15510;52.512;13.300;2022-09-17T10:45:28;15.30;99.90
28244;DHT22;15510;52.512;13.300;2022-09-17T10:47:55;15.50;99.90
28244;DHT22;15510;52.512;13.300;2022-09-17T10:50:29;15.70;99.90
28244;DHT22;15510;52.512;13.300;2022-09-17T10:52:59;16.00;99.90
28244;DHT22;15510;52.512;13.300;2022-09-17T10:58:47;15.90;99.90
28244;DHT22;15510;52.512;13.300;2022-09-17T11:09:45;16.60;99.90
28244;DHT22;15510;52.512;13.300;2022-09-17T11:12:21;17.20;99.90
28244;DHT22;15510;52.512;13.300;2022-09-17T11:15:02;17.70;99.90
28244;DHT22;15510;52.512;13.300;2022-09-17T11:23:26;17.90;99.90
28244;DHT22;15510;52.512;13.300;2022-09-17T11:29:23;19.30;99.90
28244;DHT22;15510;52.512;13.300;2022-09-17T11:34:37;20.10;99.90
28244;DHT22;15510;52.512;13.300;2022-09-17T11:37:27;20.30;99.90
28244;DHT22;15510;52.512;13.300;2022-09-17T11:40:10;20.50;99.90
28244;DHT22;15510;52.512;13.300;2022-09-17T11:45:09;21.20;99.90
28244;DHT22;15510;52.512;13.300;2022-09-17T11:48:04;21.30;99.90
28244;DHT22;15510;52.512;13.300;2022-09-17T11:50:51;20.50;99.90
28244;DHT22;15510;52.512;13.300;2022-09-17T11:53:21;20.40;99.90
28244;DHT22;15510;52.512;13.300;2022-09-17T11:56:01;20.30;99.90
28244;DHT22;15510;52.512;13.300;2022-09-17T12:01:37;19.50;99.90
28244;DHT22;15510;52.512;13.300;2022-09-17T12:06:57;19.40;99.90
28244;DHT22;15510;52.512;13.300;2022-09-17T12:09:27;19.80;99.90
28244;DHT22;15510;52.512;13.300;2022-09-17T12:12:13;19.60;99.90
28244;DHT22;15510;52.512;13.300;2022-09-17T12:14:50;19.20;99.90
28244;DHT22;15510;52.512;13.300;2022-09-17T12:17:30;18.60;99.90
28244;DHT22;15510;52.512;13.300;2022-09-17T12:20:03;18.10;99.90
28244;DHT22;15510;52.512;13.300;2022-09-17T12:22:33;17.80;99.90
28244;DHT22;15510;52.512;13.300;2022-09-17T12:25:01;17.50;99.90
28244;DHT22;15510;52.512;13.300;2022-09-17T12:27:35;17.30;99.90
28244;DHT22;15510;52.512;13.300;2022-09-17T12:30:06;17.90;99.90
28244;DHT22;15510;52.512;13.300;2022-09-17T12:32:51;19.00;99.90
28244;DHT22;15510;52.512;13.300;2022-09-17T12:35:49;20.40;99.90
28244;DHT22;15510;52.512;13.300;2022-09-17T12:41:23;23.40;98.80
28244;DHT22;15510;52.512;13.300;2022-09-17T12:49:35;25.10;92.10
28244;DHT22;15510;52.512;13.300;2022-09-17T13:00:03;21.60;96.90
28244;DHT22;15510;52.512;13.300;2022-09-17T13:13:59;21.80;91.00
28244;DHT22;15510;52.512;13.300;2022-09-17T13:16:40;22.70;89.50
28244;DHT22;15510;52.512;13.300;2022-09-17T13:19:26;23.80;85.00
28244;DHT22;15510;52.512;13.300;2022-09-17T13:22:18;24.40;82.80
28244;DHT22;15510;52.512;13.300;2022-09-17T13:24:45;24.90;81.60
28244;DHT22;15510;52.512;13.300;2022-09-17T13:27:24;25.20;79.00
28244;DHT22;15510;52.512;13.300;2022-09-17T13:37:57;23.90;77.30
28244;DHT22;15510;52.512;13.300;2022-09-17T13:40:32;22.50;81.40
28244;DHT22;15510;52.512;13.300;2022-09-17T13:43:08;21.50;85.20
28244;DHT22;15510;52.512;13.300;2022-09-17T13:46:05;20.60;89.70
28244;DHT22;15510;52.512;13.300;2022-09-17T13:48:36;19.90;91.70
28244;DHT22;15510;52.512;13.300;2022-09-17T13:54:07;19.50;93.70
28244;DHT22;15510;52.512;13.300;2022-09-17T13:56:36;19.20;94.90
28244;DHT22;15510;52.512;13.300;2022-09-17T14:01:55;18.70;96.50
28244;DHT22;15510;52.512;13.300;2022-09-17T14:21:13;17.80;98.30
28244;DHT22;15510;52.512;13.300;2022-09-17T14:23:44;17.70;99.20
28244;DHT22;15510;52.512;13.300;2022-09-17T14:26:24;17.70;99.30
28244;DHT22;15510;52.512;13.300;2022-09-17T14:31:35;17.30;99.90
28244;DHT22;15510;52.512;13.300;2022-09-17T14:34:04;16.90;99.90
28244;DHT22;15510;52.512;13.300;2022-09-17T14:36:34;16.60;99.90
28244;DHT22;15510;52.512;13.300;2022-09-17T14:39:02;16.30;99.90
28244;DHT22;15510;52.512;13.300;2022-09-17T14:41:34;16.30;99.90
28244;DHT22;15510;52.512;13.300;2022-09-17T14:44:05;16.30;99.90
28244;DHT22;15510;52.512;13.300;2022-09-17T14:46:32;16.30;99.90
28244;DHT22;15510;52.512;13.300;2022-09-17T14:49:32;16.30;99.90
28244;DHT22;15510;52.512;13.300;2022-09-17T14:51:58;16.20;99.90
28244;DHT22;15510;52.512;13.300;2022-09-17T14:54:26;16.20;99.90
28244;DHT22;15510;52.512;13.300;2022-09-17T14:56:57;16.00;99.90
28244;DHT22;15510;52.512;13.300;2022-09-17T14:59:57;16.00;99.90
28244;DHT22;15510;52.512;13.300;2022-09-17T15:02:35;16.00;99.90
28244;DHT22;15510;52.512;13.300;2022-09-17T15:05:01;16.00;99.90
28244;DHT22;15510;52.512;13.300;2022-09-17T15:07:37;16.10;99.90
28244;DHT22;15510;52.512;13.300;2022-09-17T15:10:15;16.10;99.90
28244;DHT22;15510;52.512;13.300;2022-09-17T15:12:43;16.10;99.90
28244;DHT22;15510;52.512;13.300;2022-09-17T15:15:21;16.10;99.90
28244;DHT22;15510;52.512;13.300;2022-09-17T15:17:48;16.00;99.90
28244;DHT22;15510;52.512;13.300;2022-09-17T15:20:24;16.00;99.90
28244;DHT22;15510;52.512;13.300;2022-09-17T15:23:00;15.90;99.90
28244;DHT22;15510;52.512;13.300;2022-09-17T15:25:29;15.90;99.90
28244;DHT22;15510;52.512;13.300;2022-09-17T15:27:57;15.80;99.90
28244;DHT22;15510;52.512;13.300;2022-09-17T15:30:25;15.70;99.90
28244;DHT22;15510;52.512;13.300;2022-09-17T15:32:53;15.50;99.90
28244;DHT22;15510;52.512;13.300;2022-09-17T15:37:56;15.20;99.90
28244;DHT22;15510;52.512;13.300;2022-09-17T15:43:32;15.00;99.90
28244;DHT22;15510;52.512;13.300;2022-09-17T15:46:28;14.90;99.90
28244;DHT22;15510;52.512;13.300;2022-09-17T15:48:56;14.90;99.90
28244;DHT22;15510;52.512;13.300;2022-09-17T15:51:26;14.70;99.90
28244;DHT22;15510;52.512;13.300;2022-09-17T15:54:05;14.60;99.90
28244;DHT22;15510;52.512;13.300;2022-09-17T15:56:36;14.50;99.90
28244;DHT22;15510;52.512;13.300;2022-09-17T15:59:15;14.40;99.90
28244;DHT22;15510;52.512;13.300;2022-09-17T16:07:28;14.20;99.90
28244;DHT22;15510;52.512;13.300;2022-09-17T16:09:54;14.10;99.90
28244;DHT22;15510;52.512;13.300;2022-09-17T16:12:23;14.20;99.90
28244;DHT22;15510;52.512;13.300;2022-09-17T16:14:52;14.20;99.90
28244;DHT22;15510;52.512;13.300;2022-09-17T16:19:47;14.20;99.90
28244;DHT22;15510;52.512;13.300;2022-09-17T16:22:12;14.10;99.90
28244;DHT22;15510;52.512;13.300;2022-09-17T16:24:38;14.10;99.90
28244;DHT22;15510;52.512;13.300;2022-09-17T16:27:04;14.10;99.90
28244;DHT22;15510;52.512;13.300;2022-09-17T16:29:30;14.10;99.90
28244;DHT22;15510;52.512;13.300;2022-09-17T16:31:56;14.00;99.90
28244;DHT22;15510;52.512;13.300;2022-09-17T16:34:21;14.10;99.90
28244;DHT22;15510;52.512;13.300;2022-09-17T16:36:49;14.10;99.90
28244;DHT22;15510;52.512;13.300;2022-09-17T16:39:14;14.10;99.90
28244;DHT22;15510;52.512;13.300;2022-09-17T16:41:40;14.00;99.90
28244;DHT22;15510;52.512;13.300;2022-09-17T16:44:06;14.00;99.90
28244;DHT22;15510;52.512;13.300;2022-09-17T16:46:31;14.00;99.90
28244;DHT22;15510;52.512;13.300;2022-09-17T16:48:57;13.90;99.90
28244;DHT22;15510;52.512;13.300;2022-09-17T16:51:24;13.90;99.90
28244;DHT22;15510;52.512;13.300;2022-09-17T16:53:50;13.90;99.90
28244;DHT22;15510;52.512;13.300;2022-09-17T16:56:16;13.90;99.90
28244;DHT22;15510;52.512;13.300;2022-09-17T16:58:42;13.80;99.90
28244;DHT22;15510;52.512;13.300;2022-09-17T17:01:09;13.70;99.90
28244;DHT22;15510;52.512;13.300;2022-09-17T17:03:35;13.70;99.90
28244;DHT22;15510;52.512;13.300;2022-09-17T17:06:00;13.70;99.90
28244;DHT22;15510;52.512;13.300;2022-09-17T17:08:26;13.70;99.90
28244;DHT22;15510;52.512;13.300;2022-09-17T17:10:52;13.60;99.90
28244;DHT22;15510;52.512;13.300;2022-09-17T17:13:18;13.60;99.90
28244;DHT22;15510;52.512;13.300;2022-09-17T17:15:43;13.60;99.90
28244;DHT22;15510;52.512;13.300;2022-09-17T17:18:09;13.70;99.90
28244;DHT22;15510;52.512;13.300;2022-09-17T17:20:35;13.70;99.90
28244;DHT22;15510;52.512;13.300;2022-09-17T17:23:01;13.70;99.90
28244;DHT22;15510;52.512;13.300;2022-09-17T17:25:28;13.60;99.90
28244;DHT22;15510;52.512;13.300;2022-09-17T17:27:54;13.60;99.90
28244;DHT22;15510;52.512;13.300;2022-09-17T17:30:20;13.60;99.90
28244;DHT22;15510;52.512;13.300;2022-09-17T17:32:51;13.50;99.90
28244;DHT22;15510;52.512;13.300;2022-09-17T17:35:17;13.50;99.90
28244;DHT22;15510;52.512;13.300;2022-09-17T17:37:43;13.50;99.90
28244;DHT22;15510;52.512;13.300;2022-09-17T17:40:09;13.40;99.90
28244;DHT22;15510;52.512;13.300;2022-09-17T17:42:36;13.40;99.90
28244;DHT22;15510;52.512;13.300;2022-09-17T17:45:07;13.30;99.90
28244;DHT22;15510;52.512;13.300;2022-09-17T17:47:33;13.30;99.90
28244;DHT22;15510;52.512;13.300;2022-09-17T17:49:58;13.20;99.90
28244;DHT22;15510;52.512;13.300;2022-09-17T17:52:24;13.20;99.90
28244;DHT22;15510;52.512;13.300;2022-09-17T17:54:50;13.00;99.90
28244;DHT22;15510;52.512;13.300;2022-09-17T17:57:16;13.00;99.90
28244;DHT22;15510;52.512;13.300;2022-09-17T17:59:41;13.00;99.90
28244;DHT22;15510;52.512;13.300;2022-09-17T18:02:08;12.90;99.90
28244;DHT22;15510;52.512;13.300;2022-09-17T18:04:34;12.80;99.90
28244;DHT22;15510;52.512;13.300;2022-09-17T18:07:00;12.70;99.90
28244;DHT22;15510;52.512;13.300;2022-09-17T18:09:25;12.60;99.90
28244;DHT22;15510;52.512;13.300;2022-09-17T18:11:51;12.60;99.90
28244;DHT22;15510;52.512;13.300;2022-09-17T18:14:16;12.50;99.90
28244;DHT22;15510;52.512;13.300;2022-09-17T18:16:42;12.50;99.90
28244;DHT22;15510;52.512;13.300;2022-09-17T18:19:09;12.40;99.90
28244;DHT22;15510;52.512;13.300;2022-09-17T18:21:35;12.30;99.90
28244;DHT22;15510;52.512;13.300;2022-09-17T18:24:01;12.20;99.90
28244;DHT22;15510;52.512;13.300;2022-09-17T18:26:28;12.20;99.90